DAL1420 KDTW-KJFK
Flight info
| Callsign | DAL1420 |
|---|---|
| Flight time | 1h 11m |
| Altitude | 35000 |
| Route | PAVYL3 MRDOC HOXIE Q476 WLKES PUCKY1 |
| Aircraft | B738/M-SDE2E3FGHIRWXY/LB1 |
Departure
| Time | 2026-05-08 21:17 |
|---|---|
| Airport | Detroit Metropolitan Wayne County Airport (KDTW) |
Arrival
| Time | 2026-05-08 22:28 |
|---|---|
| Airport | John F. Kennedy International Airport (KJFK) |
| Time | Latitude | Longitude | Altitude | Speed | Heading |
|---|---|---|---|---|---|
| 2026-05-08 20:56 | 42.20707 | -83.35973 | 649 ft | 0 kts | 116° |
| 2026-05-08 21:04 | 42.20716 | -83.35996 | 668 ft | 4 kts | 115° |
| 2026-05-08 21:04 | 42.20725 | -83.36029 | 647 ft | 4 kts | 98° |
| 2026-05-08 21:04 | 42.20725 | -83.36064 | 648 ft | 4 kts | 66° |
| 2026-05-08 21:04 | 42.20711 | -83.36087 | 650 ft | 1 kts | 29° |
| 2026-05-08 21:05 | 42.20707 | -83.36090 | 649 ft | 0 kts | 28° |
| 2026-05-08 21:07 | 42.20739 | -83.36068 | 651 ft | 9 kts | 28° |
| 2026-05-08 21:07 | 42.20799 | -83.36022 | 648 ft | 11 kts | 30° |
| 2026-05-08 21:07 | 42.20872 | -83.35968 | 649 ft | 12 kts | 28° |
| 2026-05-08 21:07 | 42.20946 | -83.35914 | 648 ft | 13 kts | 29° |
| 2026-05-08 21:08 | 42.21023 | -83.35853 | 651 ft | 12 kts | 32° |
| 2026-05-08 21:08 | 42.21091 | -83.35805 | 648 ft | 11 kts | 24° |
| 2026-05-08 21:08 | 42.21164 | -83.35753 | 649 ft | 15 kts | 28° |
| 2026-05-08 21:08 | 42.21243 | -83.35695 | 650 ft | 12 kts | 28° |
| 2026-05-08 21:09 | 42.21329 | -83.35632 | 650 ft | 13 kts | 28° |
| 2026-05-08 21:09 | 42.21390 | -83.35589 | 649 ft | 7 kts | 30° |
| 2026-05-08 21:09 | 42.21429 | -83.35558 | 648 ft | 7 kts | 31° |
| 2026-05-08 21:09 | 42.21450 | -83.35543 | 648 ft | 0 kts | 28° |
| 2026-05-08 21:10 | 42.21452 | -83.35541 | 648 ft | 6 kts | 28° |
| 2026-05-08 21:10 | 42.21516 | -83.35491 | 650 ft | 12 kts | 36° |
| 2026-05-08 21:10 | 42.21548 | -83.35380 | 648 ft | 15 kts | 86° |
| 2026-05-08 21:10 | 42.21553 | -83.35231 | 648 ft | 14 kts | 89° |
| 2026-05-08 21:11 | 42.21557 | -83.35111 | 648 ft | 14 kts | 78° |
| 2026-05-08 21:11 | 42.21614 | -83.35012 | 650 ft | 14 kts | 44° |
| 2026-05-08 21:11 | 42.21698 | -83.34902 | 650 ft | 17 kts | 43° |
| 2026-05-08 21:11 | 42.21775 | -83.34804 | 651 ft | 14 kts | 43° |
| 2026-05-08 21:12 | 42.21831 | -83.34719 | 649 ft | 10 kts | 68° |
| 2026-05-08 21:12 | 42.21836 | -83.34617 | 649 ft | 16 kts | 89° |
| 2026-05-08 21:12 | 42.21869 | -83.34493 | 649 ft | 13 kts | 37° |
| 2026-05-08 21:12 | 42.21954 | -83.34428 | 649 ft | 15 kts | 27° |
| 2026-05-08 21:13 | 42.22054 | -83.34355 | 649 ft | 18 kts | 29° |
| 2026-05-08 21:13 | 42.22165 | -83.34273 | 650 ft | 17 kts | 28° |
| 2026-05-08 21:13 | 42.22267 | -83.34197 | 648 ft | 16 kts | 28° |
| 2026-05-08 21:13 | 42.22361 | -83.34129 | 649 ft | 15 kts | 29° |
| 2026-05-08 21:14 | 42.22452 | -83.34062 | 650 ft | 15 kts | 28° |
| 2026-05-08 21:14 | 42.22548 | -83.33989 | 649 ft | 16 kts | 30° |
| 2026-05-08 21:14 | 42.22645 | -83.33920 | 649 ft | 16 kts | 28° |
| 2026-05-08 21:14 | 42.22748 | -83.33844 | 649 ft | 16 kts | 30° |
| 2026-05-08 21:15 | 42.22836 | -83.33776 | 648 ft | 13 kts | 34° |
| 2026-05-08 21:15 | 42.22851 | -83.33706 | 648 ft | 10 kts | 106° |
| 2026-05-08 21:15 | 42.22801 | -83.33642 | 649 ft | 11 kts | 192° |
| 2026-05-08 21:15 | 42.22787 | -83.33651 | 649 ft | 0 kts | 208° |
| 2026-05-08 21:16 | 42.22682 | -83.33727 | 651 ft | 50 kts | 208° |
| 2026-05-08 21:16 | 42.22161 | -83.34109 | 649 ft | 118 kts | 208° |
| 2026-05-08 21:16 | 42.21307 | -83.34742 | 875 ft | 151 kts | 208° |
| 2026-05-08 21:17 | 42.20382 | -83.35441 | 1656 ft | 151 kts | 208° |
| 2026-05-08 21:17 | 42.19400 | -83.36095 | 2306 ft | 166 kts | 198° |
| 2026-05-08 21:17 | 42.18131 | -83.36205 | 2592 ft | 200 kts | 180° |
| 2026-05-08 21:17 | 42.16657 | -83.36131 | 2840 ft | 222 kts | 181° |
| 2026-05-08 21:18 | 42.15055 | -83.36061 | 3189 ft | 242 kts | 181° |
| 2026-05-08 21:18 | 42.13909 | -83.36006 | 3479 ft | 252 kts | 181° |
| 2026-05-08 21:18 | 42.12120 | -83.35914 | 4254 ft | 259 kts | 181° |
| 2026-05-08 21:18 | 42.10309 | -83.35817 | 5185 ft | 263 kts | 181° |
| 2026-05-08 21:19 | 42.08460 | -83.35699 | 6038 ft | 269 kts | 176° |
| 2026-05-08 21:19 | 42.06098 | -83.34526 | 6804 ft | 281 kts | 150° |
| 2026-05-08 21:19 | 42.05039 | -83.33436 | 6996 ft | 287 kts | 141° |
| 2026-05-08 21:19 | 42.03497 | -83.31683 | 6995 ft | 292 kts | 140° |
| 2026-05-08 21:20 | 42.02364 | -83.29440 | 7010 ft | 294 kts | 111° |
| 2026-05-08 21:20 | 42.01885 | -83.26764 | 7011 ft | 295 kts | 98° |
| 2026-05-08 21:20 | 42.01661 | -83.24024 | 7013 ft | 295 kts | 96° |
| 2026-05-08 21:20 | 42.01463 | -83.21275 | 7005 ft | 295 kts | 96° |
| 2026-05-08 21:21 | 42.01299 | -83.18554 | 7000 ft | 295 kts | 88° |
| 2026-05-08 21:21 | 42.01575 | -83.15795 | 7239 ft | 301 kts | 78° |
| 2026-05-08 21:21 | 42.01935 | -83.12995 | 7982 ft | 307 kts | 83° |
| 2026-05-08 21:21 | 42.02119 | -83.10110 | 8784 ft | 312 kts | 85° |
| 2026-05-08 21:22 | 42.02254 | -83.07167 | 9554 ft | 319 kts | 86° |
| 2026-05-08 21:22 | 42.02385 | -83.04155 | 10258 ft | 327 kts | 86° |
| 2026-05-08 21:22 | 42.02531 | -83.01007 | 10524 ft | 350 kts | 85° |
| 2026-05-08 21:22 | 42.02709 | -82.97629 | 10729 ft | 374 kts | 85° |
| 2026-05-08 21:23 | 42.02906 | -82.94032 | 10917 ft | 397 kts | 85° |
| 2026-05-08 21:23 | 42.03113 | -82.90228 | 11082 ft | 418 kts | 85° |
| 2026-05-08 21:23 | 42.03327 | -82.86248 | 11327 ft | 434 kts | 85° |
| 2026-05-08 21:23 | 42.03544 | -82.82155 | 11820 ft | 442 kts | 85° |
| 2026-05-08 21:24 | 42.03759 | -82.78022 | 12479 ft | 445 kts | 85° |
| 2026-05-08 21:24 | 42.03975 | -82.73844 | 13105 ft | 450 kts | 85° |
| 2026-05-08 21:24 | 42.04191 | -82.69624 | 13717 ft | 455 kts | 86° |
| 2026-05-08 21:24 | 42.04408 | -82.65360 | 14264 ft | 459 kts | 86° |
| 2026-05-08 21:25 | 42.04622 | -82.61112 | 14816 ft | 462 kts | 86° |
| 2026-05-08 21:25 | 42.04836 | -82.56838 | 15365 ft | 466 kts | 85° |
| 2026-05-08 21:25 | 42.05054 | -82.52460 | 15902 ft | 469 kts | 85° |
| 2026-05-08 21:25 | 42.05271 | -82.48067 | 16428 ft | 473 kts | 85° |
| 2026-05-08 21:26 | 42.05488 | -82.43627 | 16941 ft | 477 kts | 85° |
| 2026-05-08 21:26 | 42.05706 | -82.39148 | 17474 ft | 481 kts | 85° |
| 2026-05-08 21:26 | 42.05924 | -82.34640 | 17956 ft | 485 kts | 85° |
| 2026-05-08 21:26 | 42.06141 | -82.30092 | 18410 ft | 488 kts | 85° |
| 2026-05-08 21:27 | 42.06358 | -82.25513 | 18810 ft | 492 kts | 85° |
| 2026-05-08 21:27 | 42.06575 | -82.20896 | 19192 ft | 497 kts | 85° |
| 2026-05-08 21:27 | 42.06793 | -82.16229 | 19569 ft | 501 kts | 85° |
| 2026-05-08 21:27 | 42.07009 | -82.11535 | 19940 ft | 505 kts | 85° |
| 2026-05-08 21:28 | 42.07227 | -82.06792 | 20318 ft | 509 kts | 85° |
| 2026-05-08 21:28 | 42.07443 | -82.02013 | 20685 ft | 513 kts | 85° |
| 2026-05-08 21:28 | 42.07659 | -81.97207 | 21040 ft | 517 kts | 85° |
| 2026-05-08 21:28 | 42.07875 | -81.92362 | 21386 ft | 521 kts | 85° |
| 2026-05-08 21:29 | 42.08091 | -81.87473 | 21720 ft | 524 kts | 85° |
| 2026-05-08 21:29 | 42.08303 | -81.82614 | 22060 ft | 528 kts | 85° |
| 2026-05-08 21:29 | 42.08517 | -81.77650 | 22377 ft | 532 kts | 85° |
| 2026-05-08 21:29 | 42.08731 | -81.72661 | 22689 ft | 535 kts | 86° |
| 2026-05-08 21:30 | 42.08944 | -81.67649 | 23004 ft | 538 kts | 86° |
| 2026-05-08 21:30 | 42.09156 | -81.62603 | 23309 ft | 542 kts | 85° |
| 2026-05-08 21:30 | 42.09320 | -81.57510 | 23557 ft | 546 kts | 89° |
| 2026-05-08 21:30 | 42.09208 | -81.52382 | 23816 ft | 549 kts | 93° |
| 2026-05-08 21:31 | 42.08965 | -81.47240 | 24120 ft | 551 kts | 94° |
| 2026-05-08 21:31 | 42.08670 | -81.42098 | 24515 ft | 550 kts | 95° |
| 2026-05-08 21:31 | 42.08367 | -81.36966 | 24835 ft | 550 kts | 95° |
| 2026-05-08 21:31 | 42.08075 | -81.31805 | 25048 ft | 554 kts | 94° |
| 2026-05-08 21:32 | 42.07800 | -81.26623 | 25255 ft | 557 kts | 94° |
| 2026-05-08 21:32 | 42.07539 | -81.21413 | 25448 ft | 559 kts | 94° |
| 2026-05-08 21:32 | 42.07286 | -81.16187 | 25640 ft | 560 kts | 94° |
| 2026-05-08 21:32 | 42.07036 | -81.10948 | 25814 ft | 562 kts | 94° |
| 2026-05-08 21:33 | 42.06787 | -81.05760 | 25971 ft | 563 kts | 94° |
| 2026-05-08 21:33 | 42.06530 | -81.00482 | 26113 ft | 564 kts | 94° |
| 2026-05-08 21:33 | 42.06270 | -80.95209 | 26247 ft | 565 kts | 94° |
| 2026-05-08 21:33 | 42.06005 | -80.89931 | 26432 ft | 566 kts | 94° |
| 2026-05-08 21:34 | 42.05737 | -80.84647 | 26606 ft | 566 kts | 94° |
| 2026-05-08 21:34 | 42.05465 | -80.79364 | 26790 ft | 566 kts | 94° |
| 2026-05-08 21:34 | 42.05191 | -80.74079 | 26997 ft | 565 kts | 94° |
| 2026-05-08 21:34 | 42.04915 | -80.68798 | 27200 ft | 565 kts | 94° |
| 2026-05-08 21:35 | 42.04637 | -80.63531 | 27390 ft | 565 kts | 94° |
| 2026-05-08 21:35 | 42.04355 | -80.58240 | 27590 ft | 565 kts | 94° |
| 2026-05-08 21:35 | 42.04072 | -80.52971 | 27790 ft | 565 kts | 94° |
| 2026-05-08 21:35 | 42.03787 | -80.47691 | 27986 ft | 565 kts | 94° |
| 2026-05-08 21:36 | 42.03498 | -80.42412 | 28182 ft | 565 kts | 94° |
| 2026-05-08 21:36 | 42.03208 | -80.37134 | 28384 ft | 565 kts | 94° |
| 2026-05-08 21:36 | 42.02915 | -80.31856 | 28596 ft | 565 kts | 94° |
| 2026-05-08 21:36 | 42.02624 | -80.26658 | 28810 ft | 565 kts | 94° |
| 2026-05-08 21:37 | 42.02327 | -80.21389 | 29026 ft | 565 kts | 94° |
| 2026-05-08 21:37 | 42.02026 | -80.16106 | 29248 ft | 565 kts | 94° |
| 2026-05-08 21:37 | 42.01725 | -80.10848 | 29471 ft | 565 kts | 94° |
| 2026-05-08 21:37 | 42.01419 | -80.05559 | 29701 ft | 564 kts | 94° |
| 2026-05-08 21:38 | 42.01113 | -80.00302 | 29918 ft | 564 kts | 95° |
| 2026-05-08 21:38 | 42.00804 | -79.95039 | 30101 ft | 565 kts | 95° |
| 2026-05-08 21:38 | 42.00492 | -79.89773 | 30273 ft | 565 kts | 95° |
| 2026-05-08 21:38 | 42.00178 | -79.84512 | 30474 ft | 564 kts | 95° |
| 2026-05-08 21:39 | 41.99862 | -79.79256 | 30646 ft | 564 kts | 95° |
| 2026-05-08 21:39 | 41.99543 | -79.73994 | 30833 ft | 564 kts | 95° |
| 2026-05-08 21:39 | 41.99223 | -79.68742 | 31015 ft | 564 kts | 95° |
| 2026-05-08 21:39 | 41.98903 | -79.63537 | 31205 ft | 564 kts | 95° |
| 2026-05-08 21:40 | 41.98576 | -79.58263 | 31366 ft | 564 kts | 95° |
| 2026-05-08 21:40 | 41.98248 | -79.53019 | 31532 ft | 564 kts | 95° |
| 2026-05-08 21:40 | 41.97918 | -79.47768 | 31694 ft | 564 kts | 95° |
| 2026-05-08 21:41 | 41.97251 | -79.37268 | 32024 ft | 564 kts | 95° |
| 2026-05-08 21:41 | 41.96917 | -79.32077 | 32176 ft | 564 kts | 95° |
| 2026-05-08 21:41 | 41.96577 | -79.26823 | 32355 ft | 564 kts | 95° |
| 2026-05-08 21:41 | 41.96235 | -79.21583 | 32534 ft | 563 kts | 95° |
| 2026-05-08 21:42 | 41.95891 | -79.16338 | 32707 ft | 564 kts | 95° |
| 2026-05-08 21:42 | 41.95544 | -79.11096 | 32876 ft | 563 kts | 95° |
| 2026-05-08 21:42 | 41.95196 | -79.05864 | 33049 ft | 563 kts | 95° |
| 2026-05-08 21:42 | 41.94844 | -79.00617 | 33182 ft | 564 kts | 95° |
| 2026-05-08 21:43 | 41.94489 | -78.95365 | 33321 ft | 564 kts | 95° |
| 2026-05-08 21:43 | 41.94133 | -78.90116 | 33481 ft | 564 kts | 95° |
| 2026-05-08 21:43 | 41.93773 | -78.84874 | 33658 ft | 563 kts | 95° |
| 2026-05-08 21:43 | 41.93412 | -78.79630 | 33816 ft | 564 kts | 95° |
| 2026-05-08 21:44 | 41.93048 | -78.74383 | 33925 ft | 563 kts | 95° |
| 2026-05-08 21:44 | 41.92683 | -78.69145 | 34071 ft | 563 kts | 95° |
| 2026-05-08 21:44 | 41.92314 | -78.63906 | 34181 ft | 563 kts | 95° |
| 2026-05-08 21:44 | 41.91944 | -78.58666 | 34273 ft | 564 kts | 95° |
| 2026-05-08 21:45 | 41.91570 | -78.53413 | 34380 ft | 565 kts | 95° |
| 2026-05-08 21:45 | 41.91194 | -78.48164 | 34502 ft | 565 kts | 95° |
| 2026-05-08 21:45 | 41.90815 | -78.42911 | 34626 ft | 564 kts | 95° |
| 2026-05-08 21:45 | 41.90439 | -78.37739 | 34740 ft | 564 kts | 95° |
| 2026-05-08 21:46 | 41.90057 | -78.32508 | 34864 ft | 564 kts | 96° |
| 2026-05-08 21:46 | 41.89670 | -78.27246 | 34912 ft | 565 kts | 96° |
| 2026-05-08 21:46 | 41.88890 | -78.16733 | 34908 ft | 564 kts | 96° |
| 2026-05-08 21:47 | 41.88112 | -78.06383 | 34906 ft | 553 kts | 96° |
| 2026-05-08 21:47 | 41.87335 | -77.96148 | 34922 ft | 551 kts | 96° |
| 2026-05-08 21:48 | 41.86471 | -77.85934 | 34909 ft | 550 kts | 101° |
| 2026-05-08 21:48 | 41.84286 | -77.76230 | 34942 ft | 546 kts | 113° |
| 2026-05-08 21:49 | 41.81629 | -77.66668 | 34931 ft | 547 kts | 112° |
| 2026-05-08 21:49 | 41.79071 | -77.57032 | 34943 ft | 549 kts | 112° |
| 2026-05-08 21:50 | 41.76522 | -77.47370 | 34919 ft | 550 kts | 112° |
| 2026-05-08 21:50 | 41.73937 | -77.37728 | 34921 ft | 550 kts | 112° |
| 2026-05-08 21:51 | 41.71360 | -77.28145 | 34936 ft | 550 kts | 112° |
| 2026-05-08 21:51 | 41.68764 | -77.18501 | 34885 ft | 550 kts | 112° |
| 2026-05-08 21:52 | 41.66155 | -77.08852 | 34922 ft | 551 kts | 112° |
| 2026-05-08 21:52 | 41.63553 | -76.99259 | 34933 ft | 553 kts | 112° |
| 2026-05-08 21:53 | 41.60921 | -76.89589 | 34931 ft | 554 kts | 112° |
| 2026-05-08 21:53 | 41.58272 | -76.79889 | 34921 ft | 556 kts | 112° |
| 2026-05-08 21:54 | 41.55610 | -76.70179 | 34932 ft | 556 kts | 112° |
| 2026-05-08 21:54 | 41.52941 | -76.60475 | 34930 ft | 556 kts | 112° |
| 2026-05-08 21:55 | 41.50272 | -76.50807 | 34338 ft | 566 kts | 112° |
| 2026-05-08 21:55 | 41.48917 | -76.45911 | 33957 ft | 557 kts | 112° |
| 2026-05-08 21:56 | 41.46317 | -76.36498 | 33728 ft | 522 kts | 112° |
| 2026-05-08 21:56 | 41.45072 | -76.32005 | 33393 ft | 513 kts | 113° |
| 2026-05-08 21:56 | 41.43834 | -76.27557 | 32970 ft | 510 kts | 113° |
| 2026-05-08 21:56 | 41.42597 | -76.23130 | 32347 ft | 510 kts | 113° |
| 2026-05-08 21:57 | 41.41344 | -76.18657 | 31799 ft | 522 kts | 112° |
| 2026-05-08 21:57 | 41.40057 | -76.14074 | 31275 ft | 532 kts | 112° |
| 2026-05-08 21:57 | 41.38763 | -76.09460 | 30758 ft | 530 kts | 112° |
| 2026-05-08 21:57 | 41.37477 | -76.04877 | 30244 ft | 526 kts | 112° |
| 2026-05-08 21:58 | 41.36203 | -76.00338 | 29692 ft | 521 kts | 112° |
| 2026-05-08 21:58 | 41.34949 | -75.95885 | 29093 ft | 517 kts | 112° |
| 2026-05-08 21:58 | 41.33676 | -75.91371 | 28519 ft | 512 kts | 112° |
| 2026-05-08 21:58 | 41.32421 | -75.86935 | 27961 ft | 513 kts | 112° |
| 2026-05-08 21:59 | 41.31178 | -75.82549 | 27377 ft | 514 kts | 112° |
| 2026-05-08 21:59 | 41.29914 | -75.78093 | 26833 ft | 512 kts | 112° |
| 2026-05-08 21:59 | 41.28661 | -75.73680 | 26302 ft | 507 kts | 112° |
| 2026-05-08 21:59 | 41.27413 | -75.69296 | 25775 ft | 503 kts | 112° |
| 2026-05-08 22:00 | 41.26101 | -75.64996 | 25251 ft | 499 kts | 115° |
| 2026-05-08 22:00 | 41.24699 | -75.60793 | 24746 ft | 494 kts | 116° |
| 2026-05-08 22:00 | 41.23292 | -75.56715 | 24251 ft | 490 kts | 116° |
| 2026-05-08 22:00 | 41.21885 | -75.52642 | 23756 ft | 486 kts | 116° |
| 2026-05-08 22:01 | 41.20493 | -75.48570 | 23230 ft | 482 kts | 116° |
| 2026-05-08 22:01 | 41.19129 | -75.44537 | 22962 ft | 478 kts | 115° |
| 2026-05-08 22:01 | 41.17756 | -75.40458 | 22952 ft | 489 kts | 115° |
| 2026-05-08 22:01 | 41.16392 | -75.36407 | 22946 ft | 498 kts | 115° |
| 2026-05-08 22:02 | 41.14975 | -75.32207 | 22937 ft | 504 kts | 115° |
| 2026-05-08 22:02 | 41.13525 | -75.27913 | 22942 ft | 511 kts | 115° |
| 2026-05-08 22:02 | 41.12069 | -75.23605 | 22940 ft | 513 kts | 115° |
| 2026-05-08 22:02 | 41.10612 | -75.19294 | 22935 ft | 509 kts | 115° |
| 2026-05-08 22:03 | 41.09165 | -75.15020 | 22934 ft | 507 kts | 115° |
| 2026-05-08 22:03 | 41.07719 | -75.10758 | 22938 ft | 506 kts | 115° |
| 2026-05-08 22:03 | 41.06272 | -75.06501 | 22950 ft | 505 kts | 115° |
| 2026-05-08 22:03 | 41.04826 | -75.02258 | 22953 ft | 506 kts | 115° |
| 2026-05-08 22:04 | 41.03375 | -74.98004 | 22955 ft | 507 kts | 115° |
| 2026-05-08 22:04 | 41.01921 | -74.93744 | 22940 ft | 505 kts | 115° |
| 2026-05-08 22:04 | 41.00968 | -74.90954 | 22708 ft | 498 kts | 115° |
| 2026-05-08 22:04 | 40.99250 | -74.85350 | 21681 ft | 497 kts | 104° |
| 2026-05-08 22:05 | 40.98611 | -74.80835 | 20539 ft | 503 kts | 97° |
| 2026-05-08 22:05 | 40.98138 | -74.76244 | 19663 ft | 503 kts | 96° |
| 2026-05-08 22:05 | 40.97691 | -74.71670 | 19301 ft | 500 kts | 96° |
| 2026-05-08 22:05 | 40.97387 | -74.68648 | 19217 ft | 499 kts | 96° |
| 2026-05-08 22:06 | 40.96905 | -74.64112 | 19087 ft | 498 kts | 96° |
| 2026-05-08 22:06 | 40.96396 | -74.59587 | 18985 ft | 496 kts | 97° |
| 2026-05-08 22:06 | 40.95868 | -74.55081 | 18961 ft | 495 kts | 97° |
| 2026-05-08 22:06 | 40.95331 | -74.50580 | 18955 ft | 495 kts | 97° |
| 2026-05-08 22:07 | 40.94791 | -74.46089 | 18959 ft | 494 kts | 97° |
| 2026-05-08 22:07 | 40.94249 | -74.41598 | 18953 ft | 494 kts | 97° |
| 2026-05-08 22:07 | 40.93707 | -74.37094 | 18963 ft | 496 kts | 97° |
| 2026-05-08 22:07 | 40.93162 | -74.32572 | 18965 ft | 496 kts | 97° |
| 2026-05-08 22:08 | 40.92621 | -74.28101 | 18941 ft | 482 kts | 97° |
| 2026-05-08 22:08 | 40.92101 | -74.23811 | 18942 ft | 463 kts | 97° |
| 2026-05-08 22:08 | 40.91599 | -74.19684 | 18930 ft | 445 kts | 97° |
| 2026-05-08 22:08 | 40.91121 | -74.15772 | 18936 ft | 428 kts | 97° |
| 2026-05-08 22:09 | 40.90502 | -74.11991 | 18937 ft | 414 kts | 110° |
| 2026-05-08 22:09 | 40.89170 | -74.08724 | 18960 ft | 395 kts | 126° |
| 2026-05-08 22:09 | 40.87662 | -74.05709 | 18946 ft | 393 kts | 126° |
| 2026-05-08 22:09 | 40.86097 | -74.02760 | 18919 ft | 389 kts | 136° |
| 2026-05-08 22:10 | 40.84023 | -74.00624 | 18950 ft | 372 kts | 160° |
| 2026-05-08 22:10 | 40.81671 | -73.99233 | 18954 ft | 368 kts | 166° |
| 2026-05-08 22:10 | 40.79282 | -73.97982 | 18946 ft | 368 kts | 167° |
| 2026-05-08 22:10 | 40.76920 | -73.96775 | 18950 ft | 369 kts | 167° |
| 2026-05-08 22:11 | 40.74509 | -73.95553 | 18966 ft | 370 kts | 167° |
| 2026-05-08 22:11 | 40.72102 | -73.94341 | 18963 ft | 370 kts | 167° |
| 2026-05-08 22:11 | 40.69687 | -73.93129 | 18963 ft | 371 kts | 167° |
| 2026-05-08 22:11 | 40.67273 | -73.91920 | 18963 ft | 371 kts | 167° |
| 2026-05-08 22:12 | 40.64859 | -73.90710 | 18962 ft | 371 kts | 167° |
| 2026-05-08 22:12 | 40.62446 | -73.89502 | 18939 ft | 371 kts | 167° |
| 2026-05-08 22:12 | 40.60056 | -73.88305 | 18855 ft | 365 kts | 167° |
| 2026-05-08 22:12 | 40.57689 | -73.87117 | 18598 ft | 362 kts | 167° |
| 2026-05-08 22:13 | 40.55328 | -73.85936 | 18210 ft | 363 kts | 167° |
| 2026-05-08 22:13 | 40.52998 | -73.84780 | 17791 ft | 363 kts | 167° |
| 2026-05-08 22:13 | 40.50635 | -73.83612 | 17440 ft | 361 kts | 167° |
| 2026-05-08 22:13 | 40.48299 | -73.82458 | 17115 ft | 358 kts | 167° |
| 2026-05-08 22:14 | 40.45967 | -73.81307 | 16761 ft | 356 kts | 167° |
| 2026-05-08 22:14 | 40.43792 | -73.80235 | 16432 ft | 355 kts | 167° |
| 2026-05-08 22:14 | 40.41485 | -73.79101 | 16098 ft | 353 kts | 167° |
| 2026-05-08 22:14 | 40.39190 | -73.77974 | 15719 ft | 352 kts | 167° |
| 2026-05-08 22:15 | 40.36906 | -73.76853 | 15358 ft | 351 kts | 167° |
| 2026-05-08 22:15 | 40.34896 | -73.75865 | 14999 ft | 350 kts | 167° |
| 2026-05-08 22:15 | 40.32596 | -73.74742 | 13925 ft | 365 kts | 167° |
| 2026-05-08 22:15 | 40.30164 | -73.73579 | 12703 ft | 379 kts | 167° |
| 2026-05-08 22:16 | 40.27679 | -73.72412 | 12018 ft | 374 kts | 167° |
| 2026-05-08 22:16 | 40.25282 | -73.71289 | 11663 ft | 359 kts | 167° |
| 2026-05-08 22:16 | 40.22955 | -73.70200 | 11129 ft | 351 kts | 167° |
| 2026-05-08 22:16 | 40.20678 | -73.69137 | 10638 ft | 343 kts | 167° |
| 2026-05-08 22:17 | 40.18456 | -73.68105 | 10140 ft | 336 kts | 166° |
| 2026-05-08 22:17 | 40.16406 | -73.66616 | 9582 ft | 342 kts | 141° |
| 2026-05-08 22:17 | 40.15058 | -73.64065 | 9050 ft | 344 kts | 111° |
| 2026-05-08 22:17 | 40.14737 | -73.61025 | 8526 ft | 336 kts | 81° |
| 2026-05-08 22:18 | 40.15491 | -73.58235 | 8015 ft | 320 kts | 50° |
| 2026-05-08 22:18 | 40.17078 | -73.56364 | 7512 ft | 299 kts | 20° |
| 2026-05-08 22:18 | 40.18978 | -73.55472 | 6995 ft | 290 kts | 9° |
| 2026-05-08 22:18 | 40.20923 | -73.54800 | 6445 ft | 288 kts | 8° |
| 2026-05-08 22:19 | 40.22865 | -73.54178 | 5881 ft | 287 kts | 7° |
| 2026-05-08 22:19 | 40.24808 | -73.53576 | 5319 ft | 286 kts | 7° |
| 2026-05-08 22:19 | 40.26745 | -73.52988 | 4759 ft | 285 kts | 7° |
| 2026-05-08 22:19 | 40.28670 | -73.52412 | 4240 ft | 282 kts | 7° |
| 2026-05-08 22:20 | 40.30534 | -73.51861 | 4061 ft | 267 kts | 7° |
| 2026-05-08 22:20 | 40.32290 | -73.51340 | 4002 ft | 251 kts | 7° |
| 2026-05-08 22:20 | 40.33961 | -73.50839 | 4010 ft | 248 kts | 7° |
| 2026-05-08 22:20 | 40.35647 | -73.50335 | 4013 ft | 249 kts | 7° |
| 2026-05-08 22:21 | 40.37350 | -73.49896 | 4009 ft | 246 kts | 357° |
| 2026-05-08 22:21 | 40.39030 | -73.50032 | 4014 ft | 240 kts | 348° |
| 2026-05-08 22:21 | 40.40686 | -73.50307 | 4003 ft | 239 kts | 347° |
| 2026-05-08 22:21 | 40.42321 | -73.50589 | 4003 ft | 238 kts | 347° |
| 2026-05-08 22:22 | 40.43969 | -73.50877 | 3991 ft | 236 kts | 347° |
| 2026-05-08 22:22 | 40.45593 | -73.51165 | 3792 ft | 233 kts | 347° |
| 2026-05-08 22:22 | 40.47180 | -73.51448 | 3334 ft | 235 kts | 347° |
| 2026-05-08 22:22 | 40.48801 | -73.51746 | 3093 ft | 236 kts | 347° |
| 2026-05-08 22:23 | 40.50385 | -73.52296 | 3018 ft | 234 kts | 333° |
| 2026-05-08 22:23 | 40.51839 | -73.53199 | 3000 ft | 230 kts | 330° |
| 2026-05-08 22:23 | 40.53271 | -73.54155 | 3002 ft | 231 kts | 329° |
| 2026-05-08 22:23 | 40.54682 | -73.55161 | 3005 ft | 228 kts | 321° |
| 2026-05-08 22:24 | 40.55676 | -73.56717 | 3014 ft | 221 kts | 299° |
| 2026-05-08 22:24 | 40.56464 | -73.58426 | 3002 ft | 220 kts | 300° |
| 2026-05-08 22:24 | 40.57261 | -73.60147 | 2805 ft | 217 kts | 300° |
| 2026-05-08 22:24 | 40.58023 | -73.61831 | 2527 ft | 211 kts | 300° |
| 2026-05-08 22:25 | 40.58752 | -73.63453 | 2242 ft | 200 kts | 299° |
| 2026-05-08 22:25 | 40.59436 | -73.64972 | 2006 ft | 187 kts | 299° |
| 2026-05-08 22:25 | 40.60077 | -73.66398 | 1761 ft | 176 kts | 299° |
| 2026-05-08 22:25 | 40.60682 | -73.67742 | 1518 ft | 165 kts | 299° |
| 2026-05-08 22:26 | 40.61245 | -73.68988 | 1319 ft | 152 kts | 298° |
| 2026-05-08 22:26 | 40.61779 | -73.70173 | 1139 ft | 146 kts | 298° |
| 2026-05-08 22:26 | 40.62287 | -73.71302 | 904 ft | 141 kts | 299° |
| 2026-05-08 22:26 | 40.62777 | -73.72391 | 703 ft | 132 kts | 301° |
| 2026-05-08 22:27 | 40.63250 | -73.73435 | 543 ft | 136 kts | 301° |
| 2026-05-08 22:27 | 40.63730 | -73.74503 | 368 ft | 133 kts | 302° |
| 2026-05-08 22:27 | 40.64202 | -73.75549 | 174 ft | 133 kts | 303° |
| 2026-05-08 22:27 | 40.64675 | -73.76592 | 20 ft | 127 kts | 301° |
| 2026-05-08 22:28 | 40.64923 | -73.77141 | 21 ft | 25 kts | 301° |
| 2026-05-08 22:28 | 40.64965 | -73.77234 | 22 ft | 3 kts | 300° |
| 2026-05-08 22:28 | 40.64982 | -73.77273 | 20 ft | 14 kts | 297° |
| 2026-05-08 22:28 | 40.65002 | -73.77432 | 19 ft | 19 kts | 242° |
| 2026-05-08 22:29 | 40.64965 | -73.77479 | 19 ft | 0 kts | 216° |
| 2026-05-08 22:29 | 40.64964 | -73.77480 | 19 ft | 3 kts | 216° |
| 2026-05-08 22:29 | 40.64926 | -73.77516 | 21 ft | 8 kts | 214° |
| 2026-05-08 22:29 | 40.64872 | -73.77506 | 19 ft | 13 kts | 129° |
| 2026-05-08 22:30 | 40.64809 | -73.77367 | 19 ft | 18 kts | 123° |
| 2026-05-08 22:30 | 40.64746 | -73.77229 | 19 ft | 17 kts | 120° |
| 2026-05-08 22:30 | 40.64665 | -73.77103 | 19 ft | 19 kts | 152° |
| 2026-05-08 22:30 | 40.64542 | -73.77089 | 20 ft | 15 kts | 182° |
| 2026-05-08 22:31 | 40.64449 | -73.77099 | 19 ft | 18 kts | 193° |
| 2026-05-08 22:31 | 40.64328 | -73.77186 | 19 ft | 21 kts | 211° |
| 2026-05-08 22:31 | 40.64226 | -73.77266 | 20 ft | 14 kts | 209° |
| 2026-05-08 22:31 | 40.64145 | -73.77329 | 20 ft | 13 kts | 211° |
| 2026-05-08 22:32 | 40.64077 | -73.77381 | 19 ft | 14 kts | 210° |
| 2026-05-08 22:32 | 40.63971 | -73.77463 | 19 ft | 16 kts | 211° |
| 2026-05-08 22:32 | 40.63892 | -73.77528 | 19 ft | 11 kts | 210° |
| 2026-05-08 22:32 | 40.63805 | -73.77590 | 19 ft | 11 kts | 210° |
| 2026-05-08 22:33 | 40.63769 | -73.77625 | 19 ft | 1 kts | 242° |
| 2026-05-08 22:33 | 40.63800 | -73.77710 | 19 ft | 20 kts | 320° |
| 2026-05-08 22:33 | 40.63919 | -73.77828 | 19 ft | 20 kts | 322° |
| 2026-05-08 22:33 | 40.64019 | -73.77934 | 19 ft | 14 kts | 317° |
| 2026-05-08 22:34 | 40.64032 | -73.78023 | 19 ft | 12 kts | 250° |
| 2026-05-08 22:34 | 40.64012 | -73.78089 | 21 ft | 0 kts | 248° |